Aérodrome :
LOGIN :

S'inscrire | Disclaimer

   EN    FR    IT 

 










Légende :    VFR   VFR Marginal   IFR   IFR Intensif   IFR Très Intensif
Visi : 
Plafond : 
>= 8 km
>= 3000ft
5 à 8 km
1000 à 3000 ft
1500m à 5 km
500 à 1000 ft
800 à 1500m
200 à 500 ft
< 800m
< 200 ft
Symboles :   Orages  Brouillard  Fortes neiges  Fortes précipitations  Vent > 20 kt
SIGMETs :   Divers  Orages  Givrage  Turbulence  Onde Orograph.  Cendres Volcan.






- Altitude de l'aérodrome : 527 ft
- Code IATA : DBV


LDDU - Dubrovnik

DERNIER METAR :
  • 221630Z 30003KT CAVOK 08/01 Q1029 NOSIG

METARs EXPIRÉS :
  • 221600Z 28003KT CAVOK 09/01 Q1029 NOSIG
  • 221530Z 29004KT CAVOK 10/M00 Q1029 BECMG 29007KT
  • 221500Z 29005KT 240V310 CAVOK 10/M00 Q1030 BECMG 29007KT
  • 221430Z 29005KT CAVOK 11/M00 Q1030 BECMG 29007KT
  • 221400Z 30005KT CAVOK 11/M02 Q1030 BECMG 29007KT
  • 221330Z 28005KT CAVOK 11/M03 Q1030 BECMG 29007KT

TAF AMD TAF LDDU
Valide du 22 à 15h jusqu'au 23 à 12h UTC


221550Z 2215/2312 29005KT CAVOK TX12/2311Z TN02/2305Z
BECMG 2302/2304 02015KT
PROB30
TEMPO 2304/2307 VRB18G28KT
BECMG 2309/2311 VRB02KT



MET'MAP, la Météo Aéronautique d'un coup d'oeil ! - Copyright ORBIFLY Décembre 2007 - Disclaimer

ORBIFLY MET'MAP TEAM :

Programmation & Développement : Alexandra Zaïnal
Sur une idée originale de : Baudouin d'Aumeries
Assistance à la programmation : Marc-Olivier Méhu
Soutien technique & logistique : Manuel Goepfert

Contact : metmap@orbifly.com




SOURCES & CREDITS :

   NOAA